sensor_id;sensor_type;location;lat;lon;timestamp;P1;durP1;ratioP1;P2;durP2;ratioP2
46845;SDS011;33947;46.804;134.252;2023-10-09T00:00:02;16.27;;;3.55;;
46845;SDS011;33947;46.804;134.252;2023-10-09T00:03:36;13.68;;;3.45;;
46845;SDS011;33947;46.804;134.252;2023-10-09T00:06:41;9.93;;;3.03;;
46845;SDS011;33947;46.804;134.252;2023-10-09T00:09:46;6.30;;;2.88;;
46845;SDS011;33947;46.804;134.252;2023-10-09T00:12:50;6.00;;;2.75;;
46845;SDS011;33947;46.804;134.252;2023-10-09T00:15:58;8.73;;;3.03;;
46845;SDS011;33947;46.804;134.252;2023-10-09T00:19:12;23.85;;;4.70;;
46845;SDS011;33947;46.804;134.252;2023-10-09T00:22:22;11.93;;;3.00;;
46845;SDS011;33947;46.804;134.252;2023-10-09T00:25:29;12.90;;;2.90;;
46845;SDS011;33947;46.804;134.252;2023-10-09T00:28:39;11.70;;;5.20;;
46845;SDS011;33947;46.804;134.252;2023-10-09T00:35:07;5.03;;;2.90;;
46845;SDS011;33947;46.804;134.252;2023-10-09T00:38:30;16.67;;;4.10;;
46845;SDS011;33947;46.804;134.252;2023-10-09T00:41:37;19.70;;;5.70;;
46845;SDS011;33947;46.804;134.252;2023-10-09T00:44:44;9.60;;;4.20;;
46845;SDS011;33947;46.804;134.252;2023-10-09T00:47:51;8.98;;;3.92;;
46845;SDS011;33947;46.804;134.252;2023-10-09T00:50:59;20.25;;;4.60;;
46845;SDS011;33947;46.804;134.252;2023-10-09T00:54:04;11.02;;;4.15;;
46845;SDS011;33947;46.804;134.252;2023-10-09T00:57:18;17.33;;;5.35;;
46845;SDS011;33947;46.804;134.252;2023-10-09T01:00:27;10.15;;;4.05;;
46845;SDS011;33947;46.804;134.252;2023-10-09T01:03:54;8.75;;;2.60;;
46845;SDS011;33947;46.804;134.252;2023-10-09T01:07:00;8.00;;;3.13;;
46845;SDS011;33947;46.804;134.252;2023-10-09T01:10:45;9.90;;;3.20;;
46845;SDS011;33947;46.804;134.252;2023-10-09T01:14:10;23.63;;;3.40;;
46845;SDS011;33947;46.804;134.252;2023-10-09T01:17:14;6.20;;;2.87;;
46845;SDS011;33947;46.804;134.252;2023-10-09T01:20:33;6.68;;;2.70;;
46845;SDS011;33947;46.804;134.252;2023-10-09T01:23:48;13.65;;;3.13;;
46845;SDS011;33947;46.804;134.252;2023-10-09T01:27:07;13.52;;;2.75;;
46845;SDS011;33947;46.804;134.252;2023-10-09T01:30:18;11.25;;;2.90;;
46845;SDS011;33947;46.804;134.252;2023-10-09T01:33:23;13.10;;;3.17;;
46845;SDS011;33947;46.804;134.252;2023-10-09T01:36:29;7.50;;;2.75;;
46845;SDS011;33947;46.804;134.252;2023-10-09T01:39:40;27.65;;;4.38;;
46845;SDS011;33947;46.804;134.252;2023-10-09T01:42:45;6.45;;;2.83;;
46845;SDS011;33947;46.804;134.252;2023-10-09T01:45:52;11.48;;;2.40;;
46845;SDS011;33947;46.804;134.252;2023-10-09T01:48:56;8.00;;;2.40;;
46845;SDS011;33947;46.804;134.252;2023-10-09T01:52:02;16.42;;;3.45;;
46845;SDS011;33947;46.804;134.252;2023-10-09T01:55:15;8.35;;;3.00;;
46845;SDS011;33947;46.804;134.252;2023-10-09T01:58:41;11.43;;;4.65;;
46845;SDS011;33947;46.804;134.252;2023-10-09T02:01:50;10.88;;;4.38;;
46845;SDS011;33947;46.804;134.252;2023-10-09T02:08:17;16.30;;;3.30;;
46845;SDS011;33947;46.804;134.252;2023-10-09T02:11:25;11.48;;;3.55;;
46845;SDS011;33947;46.804;134.252;2023-10-09T02:14:59;22.42;;;4.05;;
46845;SDS011;33947;46.804;134.252;2023-10-09T02:18:10;7.03;;;3.08;;
46845;SDS011;33947;46.804;134.252;2023-10-09T02:21:28;6.72;;;3.22;;
46845;SDS011;33947;46.804;134.252;2023-10-09T02:24:38;5.15;;;3.20;;
46845;SDS011;33947;46.804;134.252;2023-10-09T02:28:10;8.90;;;3.15;;
46845;SDS011;33947;46.804;134.252;2023-10-09T02:31:27;21.73;;;5.25;;
46845;SDS011;33947;46.804;134.252;2023-10-09T02:34:46;10.93;;;3.40;;
46845;SDS011;33947;46.804;134.252;2023-10-09T02:37:54;7.75;;;3.13;;
46845;SDS011;33947;46.804;134.252;2023-10-09T02:41:01;10.77;;;2.67;;
46845;SDS011;33947;46.804;134.252;2023-10-09T02:44:06;7.22;;;3.10;;
46845;SDS011;33947;46.804;134.252;2023-10-09T02:47:15;5.25;;;3.05;;
46845;SDS011;33947;46.804;134.252;2023-10-09T02:50:41;5.07;;;2.55;;
46845;SDS011;33947;46.804;134.252;2023-10-09T02:53:49;3.75;;;2.60;;
46845;SDS011;33947;46.804;134.252;2023-10-09T02:56:55;6.57;;;2.80;;
46845;SDS011;33947;46.804;134.252;2023-10-09T03:00:22;4.95;;;2.67;;
46845;SDS011;33947;46.804;134.252;2023-10-09T03:03:33;4.90;;;2.83;;
46845;SDS011;33947;46.804;134.252;2023-10-09T03:09:49;8.55;;;2.50;;
46845;SDS011;33947;46.804;134.252;2023-10-09T03:12:53;8.38;;;3.03;;
46845;SDS011;33947;46.804;134.252;2023-10-09T03:15:57;6.78;;;2.50;;
46845;SDS011;33947;46.804;134.252;2023-10-09T03:19:05;4.63;;;2.70;;
46845;SDS011;33947;46.804;134.252;2023-10-09T03:22:15;6.93;;;2.50;;
46845;SDS011;33947;46.804;134.252;2023-10-09T03:25:19;4.38;;;2.58;;
46845;SDS011;33947;46.804;134.252;2023-10-09T03:28:23;7.00;;;3.20;;
46845;SDS011;33947;46.804;134.252;2023-10-09T03:31:28;6.55;;;2.70;;
46845;SDS011;33947;46.804;134.252;2023-10-09T03:34:36;16.58;;;3.13;;
46845;SDS011;33947;46.804;134.252;2023-10-09T03:37:40;9.75;;;2.92;;
46845;SDS011;33947;46.804;134.252;2023-10-09T03:40:45;7.72;;;3.30;;
46845;SDS011;33947;46.804;134.252;2023-10-09T03:43:53;6.05;;;2.80;;
46845;SDS011;33947;46.804;134.252;2023-10-09T03:47:02;7.93;;;2.70;;
46845;SDS011;33947;46.804;134.252;2023-10-09T03:50:08;6.55;;;2.80;;
46845;SDS011;33947;46.804;134.252;2023-10-09T03:53:26;5.72;;;2.53;;
46845;SDS011;33947;46.804;134.252;2023-10-09T03:56:33;9.25;;;2.70;;
46845;SDS011;33947;46.804;134.252;2023-10-09T03:59:38;5.95;;;2.70;;
46845;SDS011;33947;46.804;134.252;2023-10-09T04:02:42;6.65;;;2.90;;
46845;SDS011;33947;46.804;134.252;2023-10-09T04:05:46;4.50;;;2.22;;
46845;SDS011;33947;46.804;134.252;2023-10-09T04:08:50;18.58;;;3.20;;
46845;SDS011;33947;46.804;134.252;2023-10-09T04:11:55;6.63;;;2.85;;
46845;SDS011;33947;46.804;134.252;2023-10-09T04:15:14;5.13;;;2.53;;
46845;SDS011;33947;46.804;134.252;2023-10-09T04:18:19;12.23;;;3.42;;
46845;SDS011;33947;46.804;134.252;2023-10-09T04:21:31;22.10;;;3.95;;
46845;SDS011;33947;46.804;134.252;2023-10-09T04:24:39;5.97;;;3.03;;
46845;SDS011;33947;46.804;134.252;2023-10-09T04:27:47;10.75;;;3.17;;
46845;SDS011;33947;46.804;134.252;2023-10-09T04:30:56;5.38;;;2.50;;
46845;SDS011;33947;46.804;134.252;2023-10-09T04:34:02;5.10;;;2.75;;
46845;SDS011;33947;46.804;134.252;2023-10-09T04:37:27;4.70;;;2.53;;
46845;SDS011;33947;46.804;134.252;2023-10-09T04:40:40;4.57;;;2.50;;
46845;SDS011;33947;46.804;134.252;2023-10-09T04:43:51;5.55;;;2.45;;
46845;SDS011;33947;46.804;134.252;2023-10-09T04:46:56;5.18;;;2.38;;
46845;SDS011;33947;46.804;134.252;2023-10-09T04:50:16;3.67;;;2.38;;
46845;SDS011;33947;46.804;134.252;2023-10-09T04:53:20;4.25;;;2.70;;
46845;SDS011;33947;46.804;134.252;2023-10-09T04:56:24;8.80;;;2.95;;
46845;SDS011;33947;46.804;134.252;2023-10-09T04:59:28;4.57;;;2.30;;
46845;SDS011;33947;46.804;134.252;2023-10-09T05:02:32;4.57;;;2.38;;
46845;SDS011;33947;46.804;134.252;2023-10-09T05:05:40;6.85;;;2.42;;
46845;SDS011;33947;46.804;134.252;2023-10-09T05:08:46;5.43;;;2.58;;
46845;SDS011;33947;46.804;134.252;2023-10-09T05:11:53;17.20;;;3.22;;
46845;SDS011;33947;46.804;134.252;2023-10-09T05:14:57;24.38;;;8.55;;
46845;SDS011;33947;46.804;134.252;2023-10-09T05:18:16;7.25;;;3.88;;
46845;SDS011;33947;46.804;134.252;2023-10-09T05:21:20;12.43;;;3.50;;
46845;SDS011;33947;46.804;134.252;2023-10-09T05:24:34;7.18;;;2.70;;
46845;SDS011;33947;46.804;134.252;2023-10-09T05:27:51;6.93;;;2.85;;
46845;SDS011;33947;46.804;134.252;2023-10-09T05:30:55;5.35;;;2.72;;
46845;SDS011;33947;46.804;134.252;2023-10-09T05:34:09;4.57;;;2.72;;
46845;SDS011;33947;46.804;134.252;2023-10-09T05:37:15;6.80;;;2.53;;
46845;SDS011;33947;46.804;134.252;2023-10-09T05:40:29;4.53;;;2.22;;
46845;SDS011;33947;46.804;134.252;2023-10-09T05:43:39;4.78;;;2.38;;
46845;SDS011;33947;46.804;134.252;2023-10-09T05:47:04;6.18;;;2.50;;
46845;SDS011;33947;46.804;134.252;2023-10-09T05:50:40;4.95;;;2.60;;
46845;SDS011;33947;46.804;134.252;2023-10-09T05:54:23;3.80;;;2.10;;
46845;SDS011;33947;46.804;134.252;2023-10-09T05:57:47;5.35;;;2.85;;
46845;SDS011;33947;46.804;134.252;2023-10-09T06:01:06;11.35;;;5.00;;
46845;SDS011;33947;46.804;134.252;2023-10-09T06:04:29;7.75;;;3.83;;
46845;SDS011;33947;46.804;134.252;2023-10-09T06:07:51;6.97;;;2.92;;
46845;SDS011;33947;46.804;134.252;2023-10-09T06:11:11;8.15;;;2.78;;
46845;SDS011;33947;46.804;134.252;2023-10-09T06:14:35;8.77;;;2.97;;
46845;SDS011;33947;46.804;134.252;2023-10-09T06:17:39;10.18;;;3.40;;
46845;SDS011;33947;46.804;134.252;2023-10-09T06:20:47;5.35;;;2.63;;
46845;SDS011;33947;46.804;134.252;2023-10-09T06:24:10;4.47;;;2.55;;
46845;SDS011;33947;46.804;134.252;2023-10-09T06:27:21;4.47;;;2.70;;
46845;SDS011;33947;46.804;134.252;2023-10-09T06:30:34;13.95;;;3.72;;
46845;SDS011;33947;46.804;134.252;2023-10-09T06:33:41;32.73;;;8.87;;
46845;SDS011;33947;46.804;134.252;2023-10-09T06:40:33;21.83;;;3.70;;
46845;SDS011;33947;46.804;134.252;2023-10-09T06:43:56;8.13;;;3.28;;
46845;SDS011;33947;46.804;134.252;2023-10-09T06:47:10;15.82;;;4.03;;
46845;SDS011;33947;46.804;134.252;2023-10-09T06:50:16;23.80;;;4.10;;
46845;SDS011;33947;46.804;134.252;2023-10-09T06:53:26;25.48;;;4.50;;
46845;SDS011;33947;46.804;134.252;2023-10-09T06:56:49;11.57;;;3.97;;
46845;SDS011;33947;46.804;134.252;2023-10-09T06:59:56;10.10;;;3.78;;
46845;SDS011;33947;46.804;134.252;2023-10-09T07:03:35;27.20;;;5.00;;
46845;SDS011;33947;46.804;134.252;2023-10-09T07:06:55;21.38;;;4.07;;
46845;SDS011;33947;46.804;134.252;2023-10-09T07:10:05;12.48;;;3.78;;
46845;SDS011;33947;46.804;134.252;2023-10-09T07:13:29;17.00;;;5.25;;
46845;SDS011;33947;46.804;134.252;2023-10-09T07:16:40;12.75;;;5.32;;
46845;SDS011;33947;46.804;134.252;2023-10-09T07:20:01;10.93;;;3.47;;
46845;SDS011;33947;46.804;134.252;2023-10-09T07:23:18;13.82;;;4.07;;
46845;SDS011;33947;46.804;134.252;2023-10-09T07:26:24;13.57;;;4.55;;
46845;SDS011;33947;46.804;134.252;2023-10-09T07:29:40;9.38;;;4.18;;
46845;SDS011;33947;46.804;134.252;2023-10-09T07:32:53;9.27;;;3.72;;
46845;SDS011;33947;46.804;134.252;2023-10-09T07:36:22;9.77;;;4.47;;
46845;SDS011;33947;46.804;134.252;2023-10-09T07:39:38;13.68;;;5.30;;
46845;SDS011;33947;46.804;134.252;2023-10-09T07:42:53;11.98;;;4.80;;
46845;SDS011;33947;46.804;134.252;2023-10-09T07:46:09;34.83;;;13.02;;
46845;SDS011;33947;46.804;134.252;2023-10-09T07:49:34;49.85;;;11.77;;
46845;SDS011;33947;46.804;134.252;2023-10-09T07:52:41;48.90;;;9.35;;
46845;SDS011;33947;46.804;134.252;2023-10-09T07:55:50;35.63;;;7.57;;
46845;SDS011;33947;46.804;134.252;2023-10-09T07:58:58;39.20;;;6.68;;
46845;SDS011;33947;46.804;134.252;2023-10-09T08:02:04;37.53;;;7.85;;
46845;SDS011;33947;46.804;134.252;2023-10-09T08:05:09;52.00;;;9.18;;
46845;SDS011;33947;46.804;134.252;2023-10-09T08:08:22;48.65;;;9.10;;
46845;SDS011;33947;46.804;134.252;2023-10-09T08:11:41;50.72;;;9.40;;
46845;SDS011;33947;46.804;134.252;2023-10-09T08:14:56;47.42;;;8.45;;
46845;SDS011;33947;46.804;134.252;2023-10-09T08:18:25;53.97;;;9.13;;
46845;SDS011;33947;46.804;134.252;2023-10-09T08:21:31;40.80;;;8.18;;
46845;SDS011;33947;46.804;134.252;2023-10-09T08:25:07;40.33;;;11.15;;
46845;SDS011;33947;46.804;134.252;2023-10-09T08:28:29;67.60;;;16.20;;
46845;SDS011;33947;46.804;134.252;2023-10-09T08:31:51;67.10;;;15.20;;
46845;SDS011;33947;46.804;134.252;2023-10-09T08:35:00;52.78;;;19.13;;
46845;SDS011;33947;46.804;134.252;2023-10-09T08:38:09;77.90;;;21.35;;
46845;SDS011;33947;46.804;134.252;2023-10-09T08:41:14;84.53;;;29.83;;
46845;SDS011;33947;46.804;134.252;2023-10-09T08:44:20;63.08;;;25.08;;
46845;SDS011;33947;46.804;134.252;2023-10-09T08:47:30;78.05;;;28.75;;
46845;SDS011;33947;46.804;134.252;2023-10-09T08:50:36;76.60;;;29.42;;
46845;SDS011;33947;46.804;134.252;2023-10-09T08:53:41;82.38;;;31.58;;
46845;SDS011;33947;46.804;134.252;2023-10-09T08:56:49;73.20;;;28.15;;
46845;SDS011;33947;46.804;134.252;2023-10-09T08:59:54;68.88;;;26.92;;
46845;SDS011;33947;46.804;134.252;2023-10-09T09:03:00;52.75;;;23.75;;
46845;SDS011;33947;46.804;134.252;2023-10-09T09:06:04;59.85;;;23.98;;
46845;SDS011;33947;46.804;134.252;2023-10-09T09:09:12;69.70;;;24.25;;
46845;SDS011;33947;46.804;134.252;2023-10-09T09:12:17;75.25;;;27.35;;
46845;SDS011;33947;46.804;134.252;2023-10-09T09:15:24;77.93;;;29.70;;
46845;SDS011;33947;46.804;134.252;2023-10-09T09:18:31;74.72;;;27.88;;
46845;SDS011;33947;46.804;134.252;2023-10-09T09:22:00;73.13;;;28.95;;
46845;SDS011;33947;46.804;134.252;2023-10-09T09:25:16;75.13;;;28.80;;
46845;SDS011;33947;46.804;134.252;2023-10-09T09:28:21;66.43;;;27.65;;
46845;SDS011;33947;46.804;134.252;2023-10-09T09:31:25;93.00;;;34.70;;
46845;SDS011;33947;46.804;134.252;2023-10-09T09:34:33;69.82;;;29.10;;
46845;SDS011;33947;46.804;134.252;2023-10-09T09:37:53;67.20;;;29.75;;
46845;SDS011;33947;46.804;134.252;2023-10-09T09:40:58;62.08;;;28.83;;
46845;SDS011;33947;46.804;134.252;2023-10-09T09:44:06;60.38;;;23.92;;
46845;SDS011;33947;46.804;134.252;2023-10-09T09:47:14;62.78;;;26.55;;
46845;SDS011;33947;46.804;134.252;2023-10-09T09:50:40;58.67;;;25.17;;
46845;SDS011;33947;46.804;134.252;2023-10-09T09:53:47;53.60;;;24.45;;
46845;SDS011;33947;46.804;134.252;2023-10-09T09:56:53;58.35;;;25.02;;
46845;SDS011;33947;46.804;134.252;2023-10-09T10:00:01;53.30;;;22.33;;
46845;SDS011;33947;46.804;134.252;2023-10-09T10:03:14;67.68;;;23.92;;
46845;SDS011;33947;46.804;134.252;2023-10-09T10:06:25;56.58;;;21.98;;
46845;SDS011;33947;46.804;134.252;2023-10-09T10:09:36;69.13;;;25.48;;
46845;SDS011;33947;46.804;134.252;2023-10-09T10:16:09;68.50;;;24.35;;
46845;SDS011;33947;46.804;134.252;2023-10-09T10:19:54;58.97;;;20.50;;
46845;SDS011;33947;46.804;134.252;2023-10-09T10:23:22;62.67;;;21.50;;
46845;SDS011;33947;46.804;134.252;2023-10-09T10:26:29;58.70;;;21.50;;
46845;SDS011;33947;46.804;134.252;2023-10-09T10:29:37;68.65;;;21.35;;
46845;SDS011;33947;46.804;134.252;2023-10-09T10:35:55;53.95;;;24.77;;
46845;SDS011;33947;46.804;134.252;2023-10-09T10:39:07;72.45;;;24.15;;
46845;SDS011;33947;46.804;134.252;2023-10-09T10:42:25;68.00;;;27.60;;
46845;SDS011;33947;46.804;134.252;2023-10-09T10:45:39;85.30;;;32.00;;
46845;SDS011;33947;46.804;134.252;2023-10-09T10:48:50;69.53;;;28.40;;
46845;SDS011;33947;46.804;134.252;2023-10-09T10:52:22;65.68;;;29.73;;
46845;SDS011;33947;46.804;134.252;2023-10-09T10:55:38;83.10;;;39.15;;
46845;SDS011;33947;46.804;134.252;2023-10-09T10:58:43;70.20;;;36.33;;
46845;SDS011;33947;46.804;134.252;2023-10-09T11:02:16;64.80;;;31.55;;
46845;SDS011;33947;46.804;134.252;2023-10-09T11:05:27;48.08;;;20.30;;
46845;SDS011;33947;46.804;134.252;2023-10-09T11:08:36;46.33;;;20.80;;
46845;SDS011;33947;46.804;134.252;2023-10-09T11:11:41;44.70;;;23.38;;
46845;SDS011;33947;46.804;134.252;2023-10-09T11:14:52;49.97;;;24.02;;
46845;SDS011;33947;46.804;134.252;2023-10-09T11:18:20;62.97;;;28.83;;
46845;SDS011;33947;46.804;134.252;2023-10-09T11:21:28;64.95;;;26.95;;
46845;SDS011;33947;46.804;134.252;2023-10-09T11:24:35;61.45;;;27.02;;
46845;SDS011;33947;46.804;134.252;2023-10-09T11:27:40;63.08;;;26.38;;
46845;SDS011;33947;46.804;134.252;2023-10-09T11:30:53;48.65;;;20.58;;
46845;SDS011;33947;46.804;134.252;2023-10-09T11:34:01;62.95;;;27.33;;
46845;SDS011;33947;46.804;134.252;2023-10-09T11:40:30;70.13;;;30.30;;
46845;SDS011;33947;46.804;134.252;2023-10-09T11:43:53;57.30;;;28.02;;
46845;SDS011;33947;46.804;134.252;2023-10-09T11:47:00;55.45;;;26.30;;
46845;SDS011;33947;46.804;134.252;2023-10-09T11:50:39;61.33;;;27.17;;
46845;SDS011;33947;46.804;134.252;2023-10-09T11:53:59;48.22;;;24.35;;
46845;SDS011;33947;46.804;134.252;2023-10-09T11:57:04;100.28;;;49.08;;
46845;SDS011;33947;46.804;134.252;2023-10-09T12:00:08;62.65;;;31.00;;
46845;SDS011;33947;46.804;134.252;2023-10-09T12:03:39;60.22;;;24.52;;
46845;SDS011;33947;46.804;134.252;2023-10-09T12:06:44;51.97;;;28.15;;
46845;SDS011;33947;46.804;134.252;2023-10-09T12:09:48;52.30;;;25.02;;
46845;SDS011;33947;46.804;134.252;2023-10-09T12:12:55;56.97;;;28.15;;
46845;SDS011;33947;46.804;134.252;2023-10-09T12:16:02;51.83;;;23.45;;
46845;SDS011;33947;46.804;134.252;2023-10-09T12:19:11;39.17;;;15.65;;
46845;SDS011;33947;46.804;134.252;2023-10-09T12:22:15;40.35;;;17.15;;
46845;SDS011;33947;46.804;134.252;2023-10-09T12:25:25;40.88;;;16.80;;
46845;SDS011;33947;46.804;134.252;2023-10-09T12:28:30;35.03;;;15.43;;
46845;SDS011;33947;46.804;134.252;2023-10-09T12:31:36;37.60;;;15.13;;
46845;SDS011;33947;46.804;134.252;2023-10-09T12:34:41;44.50;;;19.17;;
46845;SDS011;33947;46.804;134.252;2023-10-09T12:37:51;36.50;;;15.40;;
46845;SDS011;33947;46.804;134.252;2023-10-09T12:41:04;32.40;;;13.85;;
46845;SDS011;33947;46.804;134.252;2023-10-09T12:44:23;36.03;;;13.75;;
46845;SDS011;33947;46.804;134.252;2023-10-09T12:47:30;38.05;;;14.88;;
46845;SDS011;33947;46.804;134.252;2023-10-09T12:50:36;32.53;;;14.07;;
46845;SDS011;33947;46.804;134.252;2023-10-09T12:53:48;35.28;;;14.60;;
46845;SDS011;33947;46.804;134.252;2023-10-09T12:56:56;35.00;;;15.82;;
46845;SDS011;33947;46.804;134.252;2023-10-09T13:00:02;34.33;;;15.13;;
46845;SDS011;33947;46.804;134.252;2023-10-09T13:03:16;33.97;;;15.32;;
46845;SDS011;33947;46.804;134.252;2023-10-09T13:06:21;36.50;;;15.50;;
46845;SDS011;33947;46.804;134.252;2023-10-09T13:09:30;39.22;;;14.13;;
46845;SDS011;33947;46.804;134.252;2023-10-09T13:12:47;31.60;;;12.32;;
46845;SDS011;33947;46.804;134.252;2023-10-09T13:15:58;32.95;;;14.27;;
46845;SDS011;33947;46.804;134.252;2023-10-09T13:19:02;34.42;;;14.40;;
46845;SDS011;33947;46.804;134.252;2023-10-09T13:22:13;32.17;;;12.55;;
46845;SDS011;33947;46.804;134.252;2023-10-09T13:25:17;31.42;;;13.35;;
46845;SDS011;33947;46.804;134.252;2023-10-09T13:28:36;53.72;;;12.65;;
46845;SDS011;33947;46.804;134.252;2023-10-09T13:31:41;34.03;;;13.13;;
46845;SDS011;33947;46.804;134.252;2023-10-09T13:34:49;32.67;;;11.63;;
46845;SDS011;33947;46.804;134.252;2023-10-09T13:37:54;34.28;;;13.50;;
46845;SDS011;33947;46.804;134.252;2023-10-09T13:40:58;50.78;;;19.55;;
46845;SDS011;33947;46.804;134.252;2023-10-09T13:44:07;40.25;;;15.70;;
46845;SDS011;33947;46.804;134.252;2023-10-09T13:47:13;47.10;;;17.17;;
46845;SDS011;33947;46.804;134.252;2023-10-09T13:50:25;39.40;;;14.55;;
46845;SDS011;33947;46.804;134.252;2023-10-09T13:53:36;42.28;;;17.95;;
46845;SDS011;33947;46.804;134.252;2023-10-09T13:56:48;50.63;;;19.77;;
46845;SDS011;33947;46.804;134.252;2023-10-09T13:59:56;50.42;;;20.38;;
46845;SDS011;33947;46.804;134.252;2023-10-09T14:03:05;198.82;;;44.25;;
46845;SDS011;33947;46.804;134.252;2023-10-09T14:06:16;211.32;;;47.15;;
46845;SDS011;33947;46.804;134.252;2023-10-09T14:09:23;66.35;;;22.15;;
46845;SDS011;33947;46.804;134.252;2023-10-09T14:12:58;87.63;;;25.38;;
46845;SDS011;33947;46.804;134.252;2023-10-09T14:16:03;132.77;;;34.90;;
46845;SDS011;33947;46.804;134.252;2023-10-09T14:19:11;117.93;;;30.95;;
46845;SDS011;33947;46.804;134.252;2023-10-09T14:22:19;70.93;;;23.75;;
46845;SDS011;33947;46.804;134.252;2023-10-09T14:25:24;45.25;;;16.95;;
46845;SDS011;33947;46.804;134.252;2023-10-09T14:28:33;40.65;;;15.07;;
46845;SDS011;33947;46.804;134.252;2023-10-09T14:31:37;35.90;;;14.60;;
46845;SDS011;33947;46.804;134.252;2023-10-09T14:34:42;42.53;;;15.60;;
46845;SDS011;33947;46.804;134.252;2023-10-09T14:37:53;42.05;;;14.55;;
46845;SDS011;33947;46.804;134.252;2023-10-09T14:41:01;37.25;;;15.30;;
46845;SDS011;33947;46.804;134.252;2023-10-09T14:44:06;31.43;;;14.07;;
46845;SDS011;33947;46.804;134.252;2023-10-09T14:47:13;35.58;;;14.20;;
46845;SDS011;33947;46.804;134.252;2023-10-09T14:50:17;31.67;;;12.48;;
46845;SDS011;33947;46.804;134.252;2023-10-09T14:53:25;30.05;;;11.73;;
46845;SDS011;33947;46.804;134.252;2023-10-09T14:56:32;32.35;;;12.55;;
46845;SDS011;33947;46.804;134.252;2023-10-09T14:59:39;25.30;;;12.35;;
46845;SDS011;33947;46.804;134.252;2023-10-09T15:02:46;31.58;;;12.43;;
46845;SDS011;33947;46.804;134.252;2023-10-09T15:05:50;29.70;;;10.70;;
46845;SDS011;33947;46.804;134.252;2023-10-09T15:08:54;37.50;;;11.80;;
46845;SDS011;33947;46.804;134.252;2023-10-09T15:11:59;44.05;;;12.23;;
46845;SDS011;33947;46.804;134.252;2023-10-09T15:15:04;39.05;;;12.85;;
46845;SDS011;33947;46.804;134.252;2023-10-09T15:18:17;31.80;;;11.85;;
46845;SDS011;33947;46.804;134.252;2023-10-09T15:21:24;28.80;;;11.98;;
46845;SDS011;33947;46.804;134.252;2023-10-09T15:24:30;29.80;;;12.75;;
46845;SDS011;33947;46.804;134.252;2023-10-09T15:27:35;33.63;;;13.15;;
46845;SDS011;33947;46.804;134.252;2023-10-09T15:30:42;29.38;;;13.90;;
46845;SDS011;33947;46.804;134.252;2023-10-09T15:33:46;29.58;;;12.65;;
46845;SDS011;33947;46.804;134.252;2023-10-09T15:36:54;33.47;;;12.88;;
46845;SDS011;33947;46.804;134.252;2023-10-09T15:39:59;30.73;;;13.70;;
46845;SDS011;33947;46.804;134.252;2023-10-09T15:43:06;33.92;;;11.93;;
46845;SDS011;33947;46.804;134.252;2023-10-09T15:46:11;27.50;;;12.30;;
46845;SDS011;33947;46.804;134.252;2023-10-09T15:49:20;27.75;;;13.10;;
46845;SDS011;33947;46.804;134.252;2023-10-09T15:52:24;26.42;;;13.35;;
46845;SDS011;33947;46.804;134.252;2023-10-09T15:55:33;31.80;;;14.75;;
46845;SDS011;33947;46.804;134.252;2023-10-09T15:58:41;36.38;;;15.57;;
46845;SDS011;33947;46.804;134.252;2023-10-09T16:01:47;29.83;;;14.30;;
46845;SDS011;33947;46.804;134.252;2023-10-09T16:04:51;34.13;;;13.82;;
46845;SDS011;33947;46.804;134.252;2023-10-09T16:07:57;35.47;;;15.45;;
46845;SDS011;33947;46.804;134.252;2023-10-09T16:11:01;39.87;;;15.03;;
46845;SDS011;33947;46.804;134.252;2023-10-09T16:14:05;39.92;;;15.05;;
46845;SDS011;33947;46.804;134.252;2023-10-09T16:17:15;41.10;;;16.60;;
46845;SDS011;33947;46.804;134.252;2023-10-09T16:20:20;57.88;;;17.55;;
46845;SDS011;33947;46.804;134.252;2023-10-09T16:23:30;39.88;;;16.42;;
46845;SDS011;33947;46.804;134.252;2023-10-09T16:26:36;39.65;;;16.48;;
46845;SDS011;33947;46.804;134.252;2023-10-09T16:29:45;52.10;;;15.98;;
46845;SDS011;33947;46.804;134.252;2023-10-09T16:32:53;42.67;;;15.60;;
46845;SDS011;33947;46.804;134.252;2023-10-09T16:35:57;41.80;;;15.23;;
46845;SDS011;33947;46.804;134.252;2023-10-09T16:39:03;32.37;;;13.13;;
46845;SDS011;33947;46.804;134.252;2023-10-09T16:42:08;34.65;;;11.60;;
46845;SDS011;33947;46.804;134.252;2023-10-09T16:45:17;39.50;;;12.57;;
46845;SDS011;33947;46.804;134.252;2023-10-09T16:48:21;35.90;;;12.90;;
46845;SDS011;33947;46.804;134.252;2023-10-09T16:51:28;29.00;;;12.68;;
46845;SDS011;33947;46.804;134.252;2023-10-09T16:54:34;28.85;;;12.73;;
46845;SDS011;33947;46.804;134.252;2023-10-09T16:57:40;27.70;;;12.85;;
46845;SDS011;33947;46.804;134.252;2023-10-09T17:00:44;30.70;;;10.07;;
46845;SDS011;33947;46.804;134.252;2023-10-09T17:03:49;19.13;;;8.15;;
46845;SDS011;33947;46.804;134.252;2023-10-09T17:07:06;25.85;;;7.85;;
46845;SDS011;33947;46.804;134.252;2023-10-09T17:10:19;16.52;;;6.30;;
46845;SDS011;33947;46.804;134.252;2023-10-09T17:13:28;17.05;;;6.97;;
46845;SDS011;33947;46.804;134.252;2023-10-09T17:16:33;14.18;;;6.55;;
46845;SDS011;33947;46.804;134.252;2023-10-09T17:19:37;16.02;;;6.90;;
46845;SDS011;33947;46.804;134.252;2023-10-09T17:22:41;16.52;;;6.00;;
46845;SDS011;33947;46.804;134.252;2023-10-09T17:25:46;7.87;;;4.70;;
46845;SDS011;33947;46.804;134.252;2023-10-09T17:28:51;13.98;;;3.75;;
46845;SDS011;33947;46.804;134.252;2023-10-09T17:31:55;8.87;;;4.27;;
46845;SDS011;33947;46.804;134.252;2023-10-09T17:34:59;10.85;;;4.97;;
46845;SDS011;33947;46.804;134.252;2023-10-09T17:38:05;19.80;;;6.15;;
46845;SDS011;33947;46.804;134.252;2023-10-09T17:41:11;15.82;;;5.25;;
46845;SDS011;33947;46.804;134.252;2023-10-09T17:44:16;8.60;;;3.95;;
46845;SDS011;33947;46.804;134.252;2023-10-09T17:47:22;7.95;;;4.78;;
46845;SDS011;33947;46.804;134.252;2023-10-09T17:50:27;16.63;;;5.68;;
46845;SDS011;33947;46.804;134.252;2023-10-09T17:56:36;18.95;;;9.38;;
46845;SDS011;33947;46.804;134.252;2023-10-09T17:59:41;11.32;;;5.50;;
46845;SDS011;33947;46.804;134.252;2023-10-09T18:02:46;8.95;;;5.00;;
46845;SDS011;33947;46.804;134.252;2023-10-09T18:05:51;13.27;;;4.75;;
46845;SDS011;33947;46.804;134.252;2023-10-09T18:08:55;8.15;;;4.05;;
46845;SDS011;33947;46.804;134.252;2023-10-09T18:12:00;11.95;;;4.30;;
46845;SDS011;33947;46.804;134.252;2023-10-09T18:15:06;8.32;;;3.67;;
46845;SDS011;33947;46.804;134.252;2023-10-09T18:18:16;7.63;;;3.50;;
46845;SDS011;33947;46.804;134.252;2023-10-09T18:21:23;13.45;;;6.43;;
46845;SDS011;33947;46.804;134.252;2023-10-09T18:24:27;14.32;;;5.13;;
46845;SDS011;33947;46.804;134.252;2023-10-09T18:27:31;13.32;;;5.78;;
46845;SDS011;33947;46.804;134.252;2023-10-09T18:30:36;15.32;;;6.53;;
46845;SDS011;33947;46.804;134.252;2023-10-09T18:33:45;17.63;;;5.50;;
46845;SDS011;33947;46.804;134.252;2023-10-09T18:36:50;11.73;;;3.30;;
46845;SDS011;33947;46.804;134.252;2023-10-09T18:39:55;14.95;;;3.10;;